Delhaven Orchards

*Note: All times are displayed in the local standard time of the station location.
**Rain - Equipment is designed to accurately record liquid precipitation; under conditions when precipitation is not in liquid form, the data displayed may not properly reflect rainfall values.

Date Max Temp
(°C)
Min Temp
(°C)
Avg Temp
(°C)
Rain (mm) Avg RH (%)
Tue, Jan 15, 2019 -2.5 -8.8 -3.9 0.0 99.2
Mon, Jan 14, 2019 -0.7 -7.6 -4.8 0.0 95.5
Sun, Jan 13, 2019 -0.4 -6.8 -4.1 0.0 89.1
Sat, Jan 12, 2019 -1.2 -3.9 -2.6 0.0 89.9
Fri, Jan 11, 2019 -1.6 -10.8 -5.9 0.0 90.5
Thu, Jan 10, 2019 -4.4 -9.9 -6.4 0.0 87.4
Wed, Jan 09, 2019 1.9 -4.3 -2.4 0.0 86.4
DateTime Avg Temp (°C) Rain (mm) RH (%)
Wed, Jan 16, 2019 06:00 -1.9 0.0 99.9
Wed, Jan 16, 2019 05:00 -2.4 0.0 99.9
Wed, Jan 16, 2019 04:00 -2.7 0.0 99.9
Wed, Jan 16, 2019 03:00 -2.8 0.0 99.9
Wed, Jan 16, 2019 02:00 -2.8 0.0 99.9
Wed, Jan 16, 2019 01:00 -2.7 0.0 99.9
Wed, Jan 16, 2019 00:00 -2.8 0.0 99.9
Tue, Jan 15, 2019 23:00 -2.9 0.0 99.9
Tue, Jan 15, 2019 22:00 -3.0 0.0 99.9
Tue, Jan 15, 2019 21:00 -2.8 0.0 99.9
Tue, Jan 15, 2019 20:00 -2.9 0.0 99.3
Tue, Jan 15, 2019 19:00 -2.6 0.0 96.4
Tue, Jan 15, 2019 18:00 -2.9 0.0 97.5
Tue, Jan 15, 2019 17:00 -3.3 0.0 99.9
Tue, Jan 15, 2019 16:00 -3.5 0.0 99.9
Tue, Jan 15, 2019 15:00 -3.7 0.0 99.9
Tue, Jan 15, 2019 14:00 -3.7 0.0 99.9
Tue, Jan 15, 2019 13:00 -3.6 0.0 99.9
Tue, Jan 15, 2019 12:00 -3.2 0.0 99.9
Tue, Jan 15, 2019 11:00 -2.9 0.0 99.9
Tue, Jan 15, 2019 10:00 -3.0 0.0 99.9
Tue, Jan 15, 2019 09:00 -3.0 0.0 99.4
Tue, Jan 15, 2019 08:00 -3.1 0.0 94.9
Tue, Jan 15, 2019 07:00 -3.1 0.0 95.4
Tue, Jan 15, 2019 06:00 -4.0 0.0 99.9
Tue, Jan 15, 2019 05:00 -4.7 0.0 99.9
Tue, Jan 15, 2019 04:00 -5.7 0.0 99.9
Tue, Jan 15, 2019 03:00 -7.7 0.0 99.9
Tue, Jan 15, 2019 02:00 -8.3 0.0 99.9
Tue, Jan 15, 2019 01:00 -7.0 0.0 99.9
Tue, Jan 15, 2019 00:00 -6.4 0.0 99.9
Mon, Jan 14, 2019 23:00 -4.7 0.0 99.9
Mon, Jan 14, 2019 22:00 -4.3 0.0 99.9
Mon, Jan 14, 2019 21:00 -4.5 0.0 99.9
Mon, Jan 14, 2019 20:00 -4.6 0.0 99.9
Mon, Jan 14, 2019 19:00 -5.0 0.0 99.9
Mon, Jan 14, 2019 18:00 -3.9 0.0 97.9
Mon, Jan 14, 2019 17:00 -2.4 0.0 91.2
Mon, Jan 14, 2019 16:00 -1.9 0.0 86.2
Mon, Jan 14, 2019 15:00 -1.7 0.0 85.3
Mon, Jan 14, 2019 14:00 -1.1 0.0 78.7
Mon, Jan 14, 2019 13:00 -1.6 0.0 77.0
Mon, Jan 14, 2019 12:00 -2.7 0.0 84.6
Mon, Jan 14, 2019 11:00 -4.6 0.0 94.8
Mon, Jan 14, 2019 10:00 -5.7 0.0 98.6
Mon, Jan 14, 2019 09:00 -6.3 0.0 99.9
Mon, Jan 14, 2019 08:00 -6.3 0.0 99.9
Mon, Jan 14, 2019 07:00 -6.1 0.0 99.9


asterix Register now to access more data! asterix